createdAt,value
2023-04-01T00:00:04.477Z,19.03
2023-04-01T00:02:39.147Z,19.73
2023-04-01T00:05:07.008Z,19.70
2023-04-01T00:07:34.141Z,17.63
2023-04-01T00:10:01.164Z,19.43
2023-04-01T00:12:28.036Z,20.10
2023-04-01T00:14:54.973Z,19.50
2023-04-01T00:17:22.449Z,18.10
2023-04-01T00:19:49.513Z,19.43
2023-04-01T00:22:16.511Z,19.03
2023-04-01T00:24:43.570Z,20.40
2023-04-01T00:27:11.857Z,19.77
2023-04-01T00:29:38.900Z,19.53
2023-04-01T00:32:06.272Z,19.53
2023-04-01T00:34:33.288Z,19.13
2023-04-01T00:37:00.173Z,19.10
2023-04-01T00:39:29.640Z,22.20
2023-04-01T00:41:57.760Z,19.60
2023-04-01T00:44:26.895Z,18.30
2023-04-01T00:46:54.005Z,18.07
2023-04-01T00:49:27.893Z,18.53
2023-04-01T00:51:56.781Z,17.40
2023-04-01T00:54:26.270Z,17.53
2023-04-01T00:56:59.059Z,17.77
2023-04-01T00:59:34.597Z,18.30
2023-04-01T01:02:04.439Z,18.33
2023-04-01T01:04:33.670Z,19.73
2023-04-01T01:07:16.668Z,18.67
2023-04-01T01:09:52.075Z,18.70
2023-04-01T01:12:32.186Z,18.33
2023-04-01T01:15:22.213Z,18.40
2023-04-01T01:18:29.632Z,19.23
2023-04-01T01:21:25.540Z,18.47
2023-04-01T01:24:20.841Z,19.20
2023-04-01T01:26:53.874Z,19.57
2023-04-01T01:29:51.622Z,19.70
2023-04-01T01:32:56.430Z,19.60
2023-04-01T01:35:36.664Z,18.13
2023-04-01T01:38:13.275Z,19.07
2023-04-01T01:40:48.794Z,18.53
2023-04-01T01:43:20.663Z,20.67
2023-04-01T01:45:52.066Z,22.27
2023-04-01T01:48:20.856Z,22.80
2023-04-01T01:50:49.548Z,21.10
2023-04-01T01:53:17.159Z,22.53
2023-04-01T01:55:46.790Z,20.70
2023-04-01T01:58:36.822Z,20.70
2023-04-01T02:01:07.148Z,20.60
2023-04-01T02:03:40.687Z,21.27
2023-04-01T02:06:11.930Z,20.60
2023-04-01T02:08:56.852Z,20.53
2023-04-01T02:11:37.448Z,18.87
2023-04-01T02:14:12.682Z,20.63
2023-04-01T02:16:51.570Z,20.40
2023-04-01T02:19:23.827Z,19.63
2023-04-01T02:21:56.421Z,18.93
2023-04-01T02:24:26.202Z,21.03
2023-04-01T02:26:53.472Z,21.07
2023-04-01T02:29:29.074Z,20.60
2023-04-01T02:31:56.997Z,19.97
2023-04-01T02:34:25.886Z,20.63
2023-04-01T02:36:54.935Z,22.43
2023-04-01T02:39:22.275Z,20.20
2023-04-01T02:41:49.373Z,20.73
2023-04-01T02:44:16.866Z,22.37
2023-04-01T02:46:44.655Z,20.43
2023-04-01T02:49:11.907Z,22.80
2023-04-01T02:51:39.018Z,24.63
2023-04-01T02:54:06.150Z,23.53
2023-04-01T02:56:33.185Z,22.60
2023-04-01T02:59:00.328Z,20.53
2023-04-01T03:01:27.397Z,23.20
2023-04-01T03:03:54.291Z,24.93
2023-04-01T03:06:21.530Z,24.40
2023-04-01T03:08:48.441Z,24.93
2023-04-01T03:11:15.699Z,24.03
2023-04-01T03:13:42.722Z,24.37
2023-04-01T03:16:10.498Z,23.73
2023-04-01T03:18:37.456Z,23.87
2023-04-01T03:21:23.062Z,24.40
2023-04-01T03:23:51.098Z,25.30
2023-04-01T03:26:19.176Z,24.27
2023-04-01T03:28:46.233Z,25.53
2023-04-01T03:31:13.405Z,23.43
2023-04-01T03:33:47.405Z,25.77
2023-04-01T03:36:14.504Z,22.77
2023-04-01T03:38:42.436Z,23.13
2023-04-01T03:41:16.915Z,23.70
2023-04-01T03:43:45.355Z,22.37
2023-04-01T03:46:12.694Z,23.80
2023-04-01T03:48:39.852Z,23.47
2023-04-01T03:51:09.891Z,26.00
2023-04-01T03:53:37.352Z,24.60
2023-04-01T03:56:07.763Z,25.60
2023-04-01T03:58:37.429Z,25.07
2023-04-01T04:01:18.943Z,25.50
2023-04-01T04:03:47.283Z,25.20
2023-04-01T04:06:15.832Z,25.53
2023-04-01T04:08:43.517Z,25.13
2023-04-01T04:11:11.001Z,24.83
2023-04-01T04:13:42.629Z,23.97
2023-04-01T04:16:11.060Z,23.83
2023-04-01T04:18:42.381Z,25.40
2023-04-01T04:21:16.018Z,24.23
2023-04-01T04:23:43.926Z,25.43
2023-04-01T04:26:16.106Z,24.80
2023-04-01T04:28:47.362Z,24.87
2023-04-01T04:31:23.744Z,24.10
2023-04-01T04:33:53.075Z,23.63
2023-04-01T04:36:20.911Z,22.97
2023-04-01T04:38:50.139Z,25.00
2023-04-01T04:41:19.139Z,24.73
2023-04-01T04:43:52.661Z,25.70
2023-04-01T04:46:20.487Z,24.53
2023-04-01T04:48:50.198Z,25.00
2023-04-01T04:51:18.782Z,24.93
2023-04-01T04:53:46.782Z,24.33
2023-04-01T04:56:14.209Z,26.30
2023-04-01T04:58:49.846Z,26.53
2023-04-01T05:01:21.817Z,26.10
2023-04-01T05:03:49.121Z,25.63
2023-04-01T05:06:17.530Z,25.40
2023-04-01T05:08:46.187Z,23.77
2023-04-01T05:11:15.969Z,26.03
2023-04-01T05:13:45.584Z,26.30
2023-04-01T05:16:15.372Z,26.37
2023-04-01T05:18:42.973Z,23.80
2023-04-01T05:21:12.953Z,25.73
2023-04-01T05:23:40.395Z,24.97
2023-04-01T05:26:10.899Z,25.47
2023-04-01T05:28:39.463Z,25.83
2023-04-01T05:31:08.249Z,23.40
2023-04-01T05:33:38.658Z,25.23
2023-04-01T05:36:17.321Z,24.57
2023-04-01T05:38:47.022Z,25.13
2023-04-01T05:41:15.532Z,24.43
2023-04-01T05:43:47.113Z,23.07
2023-04-01T05:46:41.204Z,23.90
2023-04-01T05:49:21.095Z,24.27
2023-04-01T05:51:49.864Z,24.43
2023-04-01T05:54:17.027Z,24.87
2023-04-01T05:56:47.631Z,24.23
2023-04-01T05:59:17.253Z,24.23
2023-04-01T06:01:44.786Z,25.40
2023-04-01T06:04:16.893Z,25.73
2023-04-01T06:06:46.053Z,23.60
2023-04-01T06:09:25.780Z,23.93
2023-04-01T06:12:32.628Z,24.90
2023-04-01T06:15:19.305Z,22.30
2023-04-01T06:17:47.054Z,24.03
2023-04-01T06:20:25.911Z,22.93
2023-04-01T06:23:26.057Z,22.87
2023-04-01T06:26:10.529Z,22.77
2023-04-01T06:28:47.480Z,24.30
2023-04-01T06:31:46.971Z,23.80
2023-04-01T06:34:24.045Z,23.27
2023-04-01T06:37:09.944Z,23.43
2023-04-01T06:39:49.139Z,22.13
2023-04-01T06:42:35.310Z,22.93
2023-04-01T06:45:14.003Z,22.37
2023-04-01T06:48:20.745Z,21.90
2023-04-01T06:51:37.395Z,21.73
2023-04-01T06:54:38.035Z,21.67
2023-04-01T06:57:26.548Z,20.53
2023-04-01T06:59:56.745Z,19.90
2023-04-01T07:02:27.435Z,20.10
2023-04-01T07:04:59.084Z,18.53
2023-04-01T07:07:40.118Z,19.17
2023-04-01T07:10:33.781Z,20.43
2023-04-01T07:13:43.897Z,19.87
2023-04-01T07:16:30.930Z,19.13
2023-04-01T07:19:19.512Z,18.60
2023-04-01T07:22:17.463Z,19.87
2023-04-01T07:25:12.748Z,18.17
2023-04-01T07:27:39.853Z,17.97
2023-04-01T07:30:22.727Z,18.87
2023-04-01T07:33:06.680Z,16.07
2023-04-01T07:35:39.257Z,15.67
2023-04-01T07:38:37.107Z,16.13
2023-04-01T07:41:42.205Z,15.77
2023-04-01T07:44:41.372Z,14.93
2023-04-01T07:47:17.385Z,13.87
2023-04-01T07:50:03.478Z,13.73
2023-04-01T07:52:46.094Z,13.63
2023-04-01T07:55:44.467Z,14.20
2023-04-01T07:58:18.436Z,12.97
2023-04-01T08:01:07.343Z,12.00
2023-04-01T08:03:58.521Z,13.03
2023-04-01T08:06:37.991Z,13.20
2023-04-01T08:09:26.002Z,11.57
2023-04-01T08:12:47.792Z,10.63
2023-04-01T08:16:09.894Z,9.67
2023-04-01T08:18:58.905Z,7.33
2023-04-01T08:22:04.666Z,7.83
2023-04-01T08:24:48.099Z,7.27
2023-04-01T08:27:40.377Z,6.50
2023-04-01T08:30:24.430Z,5.93
2023-04-01T08:33:00.918Z,6.03
2023-04-01T08:36:02.015Z,6.17
2023-04-01T08:38:41.320Z,6.33
2023-04-01T08:41:17.728Z,6.53
2023-04-01T08:44:24.716Z,7.10
2023-04-01T08:47:02.581Z,5.97
2023-04-01T08:49:56.116Z,5.87
2023-04-01T08:52:50.765Z,6.17
2023-04-01T08:55:55.870Z,5.80
2023-04-01T08:58:53.012Z,6.30
2023-04-01T09:01:51.503Z,6.07
2023-04-01T09:04:54.272Z,6.40
2023-04-01T09:07:58.864Z,6.10
2023-04-01T09:10:58.345Z,5.33
2023-04-01T09:14:12.748Z,5.47
2023-04-01T09:17:00.961Z,6.13
2023-04-01T09:19:53.415Z,5.50
2023-04-01T09:22:45.616Z,4.87
2023-04-01T09:25:39.393Z,5.60
2023-04-01T09:28:18.291Z,5.57
2023-04-01T09:31:09.588Z,5.00
2023-04-01T09:34:02.820Z,5.13
2023-04-01T09:36:56.239Z,5.33
2023-04-01T09:39:26.456Z,4.97
2023-04-01T09:42:28.901Z,5.27
2023-04-01T09:45:26.492Z,5.57
2023-04-01T09:48:26.108Z,5.20
2023-04-01T09:51:06.774Z,5.80
2023-04-01T09:53:42.785Z,4.23
2023-04-01T09:56:22.937Z,4.73
2023-04-01T09:59:28.023Z,4.07
2023-04-01T10:02:49.484Z,3.97
2023-04-01T10:05:47.092Z,4.00
2023-04-01T10:08:43.364Z,3.47
2023-04-01T10:11:31.985Z,2.27
2023-04-01T10:14:38.455Z,2.63
2023-04-01T10:17:47.333Z,2.60
2023-04-01T10:20:43.498Z,2.33
2023-04-01T10:23:28.944Z,2.23
2023-04-01T10:26:36.315Z,2.60
2023-04-01T10:30:13.510Z,2.80
2023-04-01T10:33:19.490Z,1.80
2023-04-01T10:35:52.597Z,1.53
2023-04-01T10:38:38.437Z,1.50
2023-04-01T10:41:39.675Z,1.40
2023-04-01T10:44:36.607Z,2.20
2023-04-01T10:47:36.144Z,1.70
2023-04-01T10:50:09.284Z,1.43
2023-04-01T10:53:00.746Z,1.90
2023-04-01T10:56:14.142Z,1.73
2023-04-01T10:59:31.985Z,1.47
2023-04-01T11:02:11.412Z,1.20
2023-04-01T11:05:34.077Z,1.10
2023-04-01T11:08:46.846Z,1.00
2023-04-01T11:11:36.707Z,1.60
2023-04-01T11:14:35.899Z,1.57
2023-04-01T11:17:05.928Z,1.17
2023-04-01T11:19:50.821Z,1.40
2023-04-01T11:22:39.163Z,2.00
2023-04-01T11:25:24.682Z,1.60
2023-04-01T11:28:36.203Z,1.77
2023-04-01T11:31:37.276Z,1.80
2023-04-01T11:34:33.237Z,1.27
2023-04-01T11:37:42.046Z,1.30
2023-04-01T11:40:47.776Z,1.20
2023-04-01T11:43:50.505Z,1.07
2023-04-01T11:47:02.256Z,2.03
2023-04-01T11:50:04.783Z,1.53
2023-04-01T11:53:26.958Z,1.17
2023-04-01T11:56:07.650Z,1.73
2023-04-01T11:58:56.767Z,1.30
2023-04-01T12:01:47.917Z,1.70
2023-04-01T12:04:59.834Z,1.40
2023-04-01T12:07:32.625Z,2.07
2023-04-01T12:10:22.941Z,1.40
2023-04-01T12:13:04.183Z,1.43
2023-04-01T12:15:42.874Z,1.27
2023-04-01T12:18:32.813Z,1.87
2023-04-01T12:21:24.306Z,1.60
2023-04-01T12:23:54.110Z,2.53
2023-04-01T12:26:57.804Z,1.50
2023-04-01T12:29:43.425Z,1.73
2023-04-01T12:32:47.819Z,2.00
2023-04-01T12:35:29.492Z,1.90
2023-04-01T12:38:18.241Z,2.50
2023-04-01T12:41:15.520Z,2.30
2023-04-01T12:43:45.700Z,1.57
2023-04-01T12:46:18.670Z,2.30
2023-04-01T12:49:29.022Z,2.43
2023-04-01T12:52:19.940Z,1.73
2023-04-01T12:55:15.682Z,2.10
2023-04-01T12:58:11.860Z,2.70
2023-04-01T13:00:50.286Z,2.40
2023-04-01T13:03:36.121Z,2.43
2023-04-01T13:06:15.872Z,2.73
2023-04-01T13:08:46.794Z,2.90
2023-04-01T13:11:26.730Z,3.07
2023-04-01T13:13:53.870Z,2.93
2023-04-01T13:16:27.384Z,3.43
2023-04-01T13:19:02.059Z,2.77
2023-04-01T13:21:51.440Z,2.67
2023-04-01T13:24:36.799Z,2.80
2023-04-01T13:27:44.957Z,2.83
2023-04-01T13:30:17.934Z,3.30
2023-04-01T13:32:57.104Z,2.00
2023-04-01T13:35:53.227Z,2.47
2023-04-01T13:38:32.746Z,3.17
2023-04-01T13:41:28.471Z,3.80
2023-04-01T13:44:21.068Z,3.20
2023-04-01T13:47:26.542Z,2.67
2023-04-01T13:50:02.043Z,3.63
2023-04-01T13:52:37.903Z,3.07
2023-04-01T13:55:17.491Z,2.60
2023-04-01T13:57:58.716Z,2.67
2023-04-01T14:00:53.077Z,2.07
2023-04-01T14:03:31.825Z,2.20
2023-04-01T14:06:16.443Z,1.83
2023-04-01T14:09:06.360Z,2.10
2023-04-01T14:11:53.653Z,1.40
2023-04-01T14:14:42.620Z,1.23
2023-04-01T14:17:37.375Z,1.20
2023-04-01T14:20:26.161Z,1.80
2023-04-01T14:23:14.938Z,1.70
2023-04-01T14:25:54.296Z,2.17
2023-04-01T14:28:29.116Z,1.50
2023-04-01T14:31:08.157Z,1.40
2023-04-01T14:33:58.878Z,1.20
2023-04-01T14:36:47.626Z,0.60
2023-04-01T14:40:11.136Z,0.70
2023-04-01T14:42:59.439Z,0.50
2023-04-01T14:45:36.055Z,1.40
2023-04-01T14:48:27.236Z,1.57
2023-04-01T14:50:58.573Z,1.27
2023-04-01T14:53:39.682Z,0.97
2023-04-01T14:56:07.224Z,0.43
2023-04-01T14:58:48.563Z,0.30
2023-04-01T15:01:27.326Z,0.50
2023-04-01T15:04:00.399Z,0.37
2023-04-01T15:06:53.343Z,0.50
2023-04-01T15:09:40.011Z,0.30
2023-04-01T15:12:22.613Z,0.40
2023-04-01T15:15:11.633Z,0.40
2023-04-01T15:17:50.530Z,0.10
2023-04-01T15:20:27.410Z,0.20
2023-04-01T15:23:03.708Z,0.20
2023-04-01T15:25:39.624Z,0.10
2023-04-01T15:28:39.408Z,0.27
2023-04-01T15:31:12.426Z,0.20
2023-04-01T15:34:00.577Z,0.10
2023-04-01T15:37:02.488Z,0.20
2023-04-01T15:39:58.557Z,0.57
2023-04-01T15:42:29.977Z,0.60
2023-04-01T15:45:12.559Z,0.50
2023-04-01T15:48:02.209Z,0.27
2023-04-01T15:51:04.183Z,0.23
2023-04-01T15:53:49.811Z,0.30
2023-04-01T15:56:19.509Z,0.23
2023-04-01T15:59:08.841Z,0.30
2023-04-01T16:02:08.177Z,0.40
2023-04-01T16:05:05.011Z,0.40
2023-04-01T16:07:38.138Z,0.30
2023-04-01T16:10:26.770Z,0.30
2023-04-01T16:12:59.958Z,0.70
2023-04-01T16:15:47.967Z,0.40
2023-04-01T16:18:33.962Z,0.90
2023-04-01T16:21:15.731Z,0.80
2023-04-01T16:23:59.447Z,0.43
2023-04-01T16:26:38.128Z,0.30
2023-04-01T16:29:13.466Z,0.30
2023-04-01T16:32:11.362Z,0.30
2023-04-01T16:34:45.992Z,0.23
2023-04-01T16:37:22.009Z,0.20
2023-04-01T16:40:03.797Z,0.60
2023-04-01T16:42:47.712Z,0.40
2023-04-01T16:45:26.037Z,1.20
2023-04-01T16:48:10.477Z,0.67
2023-04-01T16:51:12.577Z,0.70
2023-04-01T16:53:47.084Z,0.57
2023-04-01T16:56:25.449Z,0.50
2023-04-01T16:59:07.847Z,0.70
2023-04-01T17:01:55.463Z,0.60
2023-04-01T17:04:54.284Z,0.80
2023-04-01T17:07:30.299Z,1.00
2023-04-01T17:10:02.084Z,0.80
2023-04-01T17:12:46.664Z,0.60
2023-04-01T17:15:17.044Z,0.60
2023-04-01T17:17:56.132Z,0.40
2023-04-01T17:20:49.297Z,0.90
2023-04-01T17:23:47.825Z,0.70
2023-04-01T17:26:40.455Z,0.83
2023-04-01T17:29:25.865Z,0.77
2023-04-01T17:31:56.051Z,0.50
2023-04-01T17:35:15.367Z,0.83
2023-04-01T17:38:19.745Z,1.30
2023-04-01T17:41:04.750Z,1.30
2023-04-01T17:43:53.202Z,1.80
2023-04-01T17:46:47.687Z,1.40
2023-04-01T17:49:35.579Z,1.33
2023-04-01T17:52:33.554Z,0.90
2023-04-01T17:55:18.964Z,1.20
2023-04-01T17:57:48.884Z,1.80
2023-04-01T18:00:42.271Z,1.40
2023-04-01T18:03:25.673Z,1.40
2023-04-01T18:06:00.531Z,1.50
2023-04-01T18:08:55.396Z,1.83
2023-04-01T18:11:34.362Z,2.20
2023-04-01T18:14:25.611Z,1.50
2023-04-01T18:16:58.642Z,1.30
2023-04-01T18:19:57.471Z,1.33
2023-04-01T18:22:44.912Z,1.87
2023-04-01T18:25:22.535Z,1.50
2023-04-01T18:28:07.021Z,1.57
2023-04-01T18:30:36.013Z,1.13
2023-04-01T18:33:26.727Z,1.30
2023-04-01T18:36:44.748Z,1.40
2023-04-01T18:39:44.284Z,1.30
2023-04-01T18:42:36.227Z,1.50
2023-04-01T18:45:24.498Z,1.50
2023-04-01T18:48:48.784Z,1.40
2023-04-01T18:51:38.978Z,1.20
2023-04-01T18:54:23.126Z,1.63
2023-04-01T18:56:50.598Z,1.20
2023-04-01T18:59:44.113Z,1.60
2023-04-01T19:02:21.982Z,1.13
2023-04-01T19:05:12.364Z,0.93
2023-04-01T19:08:09.597Z,1.20
2023-04-01T19:11:10.272Z,1.30
2023-04-01T19:13:49.653Z,1.10
2023-04-01T19:16:22.383Z,1.20
2023-04-01T19:19:01.445Z,1.03
2023-04-01T19:21:35.146Z,1.30
2023-04-01T19:24:22.561Z,1.23
2023-04-01T19:27:07.575Z,0.83
2023-04-01T19:30:01.037Z,1.00
2023-04-01T19:32:43.018Z,1.23
2023-04-01T19:35:27.984Z,1.00
2023-04-01T19:38:24.015Z,1.00
2023-04-01T19:41:23.306Z,1.10
2023-04-01T19:44:11.443Z,1.23
2023-04-01T19:46:47.385Z,1.23
2023-04-01T19:49:26.383Z,1.10
2023-04-01T19:52:30.502Z,1.20
2023-04-01T19:55:16.874Z,0.70
2023-04-01T19:57:58.914Z,1.27
2023-04-01T20:00:32.162Z,1.00
2023-04-01T20:03:27.410Z,0.90
2023-04-01T20:06:24.256Z,1.30
2023-04-01T20:09:27.264Z,0.90
2023-04-01T20:12:05.441Z,0.93
2023-04-01T20:14:55.804Z,0.90
2023-04-01T20:17:44.463Z,1.20
2023-04-01T20:20:11.804Z,1.07
2023-04-01T20:22:44.378Z,1.47
2023-04-01T20:25:49.378Z,1.50
2023-04-01T20:28:19.383Z,1.13
2023-04-01T20:31:01.102Z,1.20
2023-04-01T20:33:46.575Z,1.17
2023-04-01T20:36:44.093Z,1.10
2023-04-01T20:39:45.556Z,1.37
2023-04-01T20:42:33.641Z,1.07
2023-04-01T20:45:22.092Z,1.37
2023-04-01T20:48:15.512Z,0.87
2023-04-01T20:51:08.509Z,1.07
2023-04-01T20:53:51.127Z,1.13
2023-04-01T20:56:27.077Z,1.10
2023-04-01T20:58:59.209Z,1.37
2023-04-01T21:01:46.061Z,1.50
2023-04-01T21:04:37.785Z,1.63
2023-04-01T21:07:30.599Z,2.10
2023-04-01T21:10:28.135Z,1.53
2023-04-01T21:13:21.551Z,1.70
2023-04-01T21:15:58.174Z,1.70
2023-04-01T21:18:58.910Z,1.50
2023-04-01T21:22:01.841Z,1.13
2023-04-01T21:24:52.735Z,1.70
2023-04-01T21:27:48.005Z,1.40
2023-04-01T21:30:34.280Z,1.53
2023-04-01T21:33:19.555Z,1.47
2023-04-01T21:35:58.345Z,1.70
2023-04-01T21:38:37.093Z,2.13
2023-04-01T21:41:48.149Z,1.53
2023-04-01T21:44:43.144Z,1.80
2023-04-01T21:47:39.133Z,2.20
2023-04-01T21:50:41.064Z,2.07
2023-04-01T21:53:38.626Z,1.53
2023-04-01T21:56:24.035Z,1.53
2023-04-01T21:59:12.637Z,1.80
2023-04-01T22:02:18.750Z,2.27
2023-04-01T22:05:12.601Z,2.30
2023-04-01T22:07:49.463Z,2.53
2023-04-01T22:10:46.938Z,2.00
2023-04-01T22:13:22.624Z,2.13
2023-04-01T22:16:20.414Z,2.33
2023-04-01T22:18:52.561Z,2.20
2023-04-01T22:21:25.435Z,1.97
2023-04-01T22:24:01.082Z,2.20
2023-04-01T22:26:46.525Z,1.87
2023-04-01T22:29:28.129Z,2.07
2023-04-01T22:32:17.984Z,1.90
2023-04-01T22:34:57.531Z,2.13
2023-04-01T22:37:52.149Z,2.40
2023-04-01T22:40:31.323Z,2.23
2023-04-01T22:43:23.270Z,2.53
2023-04-01T22:46:05.269Z,2.37
2023-04-01T22:48:55.872Z,1.73
2023-04-01T22:51:32.200Z,3.07
2023-04-01T22:53:59.220Z,2.70
2023-04-01T22:56:38.224Z,2.03
2023-04-01T22:59:23.670Z,2.73
2023-04-01T23:02:08.182Z,1.90
2023-04-01T23:04:40.425Z,2.63
2023-04-01T23:07:29.954Z,2.23
2023-04-01T23:09:59.799Z,1.90
2023-04-01T23:12:28.053Z,2.10
2023-04-01T23:15:01.304Z,2.30
2023-04-01T23:17:51.317Z,1.97
2023-04-01T23:20:37.890Z,2.63
2023-04-01T23:23:27.911Z,1.83
2023-04-01T23:26:22.503Z,2.03
2023-04-01T23:28:50.840Z,2.80
2023-04-01T23:31:37.352Z,1.67
2023-04-01T23:34:46.496Z,2.40
2023-04-01T23:37:17.081Z,3.63
2023-04-01T23:39:46.814Z,3.37
2023-04-01T23:42:26.532Z,2.10
2023-04-01T23:44:58.152Z,2.37
2023-04-01T23:47:35.086Z,2.23
2023-04-01T23:50:22.177Z,2.13
2023-04-01T23:53:05.668Z,2.43
2023-04-01T23:55:34.281Z,3.33
2023-04-01T23:58:06.283Z,1.60
